EDQM 200020Z AUTO 20003KT 150V260 9999 // SCT100/// 15/13 Q1022 EDQM 192350Z AUTO 16003KT 120V180 9999 // FEW110/// 14/13 Q1023 EDQM 192320Z AUTO 21004KT 9999 // FEW120/// 14/13 Q1023 EDQM 192250Z AUTO 21004KT 170V240 9999 // NCD 15/13 Q1023 EDQM 192220Z AUTO VRB02KT 9999 // NCD 14/14 Q1023 EDQM 192150Z AUTO VRB04KT 9999 // NCD 15/14 Q1022 EDQM 192120Z AUTO 12005KT 040V200 9999 // FEW048/// SCT068/// BKN094/// 15/14 Q1022 EDQM 192050Z AUTO 30004KT 240V360 9999 // FEW064/// BKN093/// 15/13 Q1023 EDQM 192020Z AUTO 31012KT 280V340 9999 // FEW060/// SCT074/// BKN094/// 15/13 Q1024 EDQM 191950Z AUTO 31015KT 280V340 9999 // FEW003/// SCT037/// BKN052/// 16/14 Q1023 EDQM 191920Z AUTO 26019G34KT 9999 // FEW038/// SCT065/// BKN089/// 19/14 Q1023 EDQM 191850Z AUTO 26006KT 230V290 9999 // FEW031/// SCT066/// BKN085/// 21/12 Q1021 EDQM 191820Z AUTO 24005KT 9999 // NCD 21/10 Q1021 EDQM 191750Z 22006KT CAVOK 23/10 Q1021 EDQM 191720Z 22007KT CAVOK 23/10 Q1021 EDQM 191650Z 22008KT CAVOK 25/10 Q1021 EDQM 191620Z 20008KT 150V240 CAVOK 25/11 Q1021 EDQM 191550Z 19008KT 140V220 CAVOK 26/11 Q1020 EDQM 191520Z 21009KT 160V250 CAVOK 25/10 Q1021 EDQM 191450Z 20011KT CAVOK 26/10 Q1021 EDQM 191420Z 21012KT CAVOK 26/10 Q1021 EDQM 191350Z 21008KT 170V240 CAVOK 26/08 Q1021 EDQM 191320Z 19009KT 140V220 CAVOK 27/07 Q1022 EDQM 191250Z 22009KT 180V240 CAVOK 25/08 Q1022 EDQM 191220Z 21008KT 150V240 CAVOK 24/08 Q1022 EDQM 191150Z 21008KT 150V260 CAVOK 26/10 Q1022 EDQM 191120Z 16007KT 090V200 CAVOK 24/09 Q1022 EDQM 191050Z 19007KT 140V230 CAVOK 25/08 Q1023 EDQM 191020Z 15007KT 120V180 CAVOK 24/10 Q1023 EDQM 190950Z 16006KT 100V200 CAVOK 23/09 Q1023 EDQM 190920Z 16008KT CAVOK 22/08 Q1023 EDQM 190850Z 16009KT 110V210 CAVOK 21/08 Q1023 EDQM 190820Z 15008KT 130V200 CAVOK 20/08 Q1024 EDQM 190750Z 15009KT CAVOK 19/08 Q1024 EDQM 190720Z 15006KT CAVOK 18/08 Q1024 EDQM 190650Z 15005KT 090V180 CAVOK 17/08 Q1024 EDQM 190620Z 16003KT 120V210 CAVOK 16/08 Q1024 EDQM 190550Z 16005KT CAVOK 14/08 Q1024 EDQM 190520Z 16005KT CAVOK 14/08 Q1024 EDQM 190450Z 19004KT CAVOK 12/08 Q1024 EDQM 190420Z AUTO 18004KT 9999 // NCD 11/07 Q1024 EDQM 190350Z AUTO 17004KT 9999 // NCD 10/07 Q1024 EDQM 190320Z AUTO 17003KT 9999 // NCD 10/07 Q1024 EDQM 190250Z AUTO 17004KT 9999 // NCD 10/07 Q1024 EDQM 190220Z AUTO 18004KT 9999 // NCD 11/07 Q1024 EDQM 190150Z AUTO 17004KT 9999 // NCD 11/07 Q1024 EDQM 190120Z AUTO 16003KT 9999 // NCD 11/07 Q1024 EDQM 190050Z AUTO 14005KT 9999 // NCD 13/07 Q1024 EDQM 190020Z AUTO 14004KT 9999 // NCD 12/07 Q1024 EDQM 182350Z AUTO 16004KT 9999 // NCD 13/08 Q1024 EDQM 182320Z AUTO 14005KT 9999 // NCD 14/08 Q1025 EDQM 182250Z AUTO 15005KT 9999 // NCD 14/08 Q1025 EDQM 182220Z AUTO 15005KT 120V180 9999 // NCD 15/08 Q1025 EDQM 182150Z AUTO 14004KT 9999 // NCD 15/08 Q1025 EDQM 182120Z AUTO 16004KT 9999 // NCD 15/08 Q1025 EDQM 182050Z AUTO 17004KT 9999 // NCD 15/08 Q1025 EDQM 182020Z AUTO 17003KT 9999 // NCD 16/08 Q1025 EDQM 181950Z AUTO 14003KT 9999 // NCD 17/09 Q1025 EDQM 181920Z AUTO 13003KT 9999 // NCD 17/09 Q1025 EDQM 181850Z AUTO 13004KT 9999 // NCD 18/09 Q1025 EDQM 181820Z AUTO VRB03KT 9999 // NCD 19/11 Q1025 EDQM 181750Z 16004KT CAVOK 21/11 Q1024 EDQM 181720Z 17005KT CAVOK 22/11 Q1024 EDQM 181650Z 17006KT CAVOK 23/11 Q1024 EDQM 181620Z 18006KT 150V210 CAVOK 23/10 Q1025 EDQM 181550Z 18006KT CAVOK 23/11 Q1025 EDQM 181520Z 17006KT 140V220 CAVOK 23/11 Q1025 EDQM 181450Z 16006KT 130V230 CAVOK 23/11 Q1025 EDQM 181420Z 16005KT CAVOK 23/12 Q1025 EDQM 181350Z VRB03KT CAVOK 21/11 Q1025 EDQM 181320Z VRB02KT CAVOK 21/11 Q1025 EDQM 181250Z 09004KT 050V140 CAVOK 21/11 Q1025

METAR Messwerte "HOF" EDQM

Zurück zur Übersicht

Ortsname
Ländercode / m ü. NN
Zeit Temperatur Taupunkt Rel.
Luftfeuchte
Luftdruck:
Altimeter
NN
Station
Wind in Beaufort
(Knoten)
Sichtweite
(Meter)
Wolken
(Meter über Grund)
Wettererscheinung
HOF
DE 578
Fr 20.05. 02:20151388 %1022
1022
954
SSW 2 (3)
SSO - W
>= 10000Wolkig (3000) 
HOF
DE 578
Fr 20.05. 01:50141394 %1023
1023
955
SSO 2 (3)
OSO - S
>= 10000Leicht bewölkt (3400) 
HOF
DE 578
Fr 20.05. 01:20141394 %1023
1023
955
SSW 2 (4)>= 10000Leicht bewölkt (3700) 
HOF
DE 578
Fr 20.05. 00:50151388 %1023
1023
955
SSW 2 (4)
S - WSW
>= 10000  
HOF
DE 578
Fr 20.05. 00:201414100 %1023
1023
955
Uml 1 (2)>= 10000  
HOF
DE 578
Do 19.05. 23:50151494 %1022
1022
954
Uml 2 (4)>= 10000  
HOF
DE 578
Do 19.05. 23:20151494 %1022
1022
954
OSO 2 (5)
NO - SSW
>= 10000Stark bewölkt (2900)
Wolkig (2100)
Leicht bewölkt (1500)
 
HOF
DE 578
Do 19.05. 22:50151388 %1023
1023
955
WNW 2 (4)
WSW - N
>= 10000Stark bewölkt (2800)
Leicht bewölkt (2000)
 
HOF
DE 578
Do 19.05. 22:20151388 %1024
1024
956
NW 4 (12)
W - NNW
>= 10000Stark bewölkt (2900)
Wolkig (2300)
Leicht bewölkt (1800)
 
HOF
DE 578
Do 19.05. 21:50161488 %1023
1023
955
NW 4 (15)
W - NNW
>= 10000Stark bewölkt (1600)
Wolkig (1100)
Leicht bewölkt (91)
 
HOF
DE 578
Do 19.05. 21:20191473 %1023
1022
955
W 5 (19) - 8 (34)>= 10000Stark bewölkt (2700)
Wolkig (2000)
Leicht bewölkt (1200)
 
HOF
DE 578
Do 19.05. 20:50211256 %1021
1020
953
W 2 (6)
SW - WNW
>= 10000Stark bewölkt (2600)
Wolkig (2000)
Leicht bewölkt (940)
 
HOF
DE 578
Do 19.05. 20:20211049 %1021
1020
953
WSW 2 (5)>= 10000  
HOF
DE 578
Do 19.05. 19:50231044 %1021
1019
953
SW 2 (6)>= 10000Nicht signifikant 
HOF
DE 578
Do 19.05. 19:20231044 %1021
1019
953
SW 3 (7)>= 10000Nicht signifikant 
HOF
DE 578
Do 19.05. 18:50251039 %1021
1019
953
SW 3 (8)>= 10000Nicht signifikant 
HOF
DE 578
Do 19.05. 18:20251141 %1021
1019
953
SSW 3 (8)
SSO - WSW
>= 10000Nicht signifikant 
HOF
DE 578
Do 19.05. 17:50261139 %1020
1017
952
S 3 (8)
SO - SW
>= 10000Nicht signifikant 
HOF
DE 578
Do 19.05. 17:20251039 %1021
1019
953
SSW 3 (9)
SSO - WSW
>= 10000Nicht signifikant 
HOF
DE 578
Do 19.05. 16:50261037 %1021
1019
953
SSW 4 (11)>= 10000Nicht signifikant 
HOF
DE 578
Do 19.05. 16:20261037 %1021
1019
953
SSW 4 (12)>= 10000Nicht signifikant 
HOF
DE 578
Do 19.05. 15:5026832 %1021
1019
953
SSW 3 (8)
S - WSW
>= 10000Nicht signifikant 
HOF
DE 578
Do 19.05. 15:2027728 %1022
1019
954
S 3 (9)
SO - SW
>= 10000Nicht signifikant 
HOF
DE 578
Do 19.05. 14:5025834 %1022
1020
954
SW 3 (9)
S - WSW
>= 10000Nicht signifikant 
HOF
DE 578
Do 19.05. 14:2024836 %1022
1020
954
SSW 3 (8)
SSO - WSW
>= 10000Nicht signifikant 
HOF
DE 578
Do 19.05. 13:50261037 %1022
1020
954
SSW 3 (8)
SSO - W
>= 10000Nicht signifikant 
HOF
DE 578
Do 19.05. 13:2024938 %1022
1020
954
SSO 3 (7)
O - SSW
>= 10000Nicht signifikant 
HOF
DE 578
Do 19.05. 12:5025834 %1023
1021
955
S 3 (7)
SO - SW
>= 10000Nicht signifikant 
HOF
DE 578
Do 19.05. 12:20241041 %1023
1021
955
SSO 3 (7)
OSO - S
>= 10000Nicht signifikant 
HOF
DE 578
Do 19.05. 11:5023941 %1023
1021
955
SSO 2 (6)
O - SSW
>= 10000Nicht signifikant 
HOF
DE 578
Do 19.05. 11:2022841 %1023
1021
955
SSO 3 (8)>= 10000Nicht signifikant 
HOF
DE 578
Do 19.05. 10:5021843 %1023
1022
955
SSO 3 (9)
OSO - SSW
>= 10000Nicht signifikant 
HOF
DE 578
Do 19.05. 10:2020846 %1024
1023
956
SSO 3 (8)
SO - SSW
>= 10000Nicht signifikant 
HOF
DE 578
Do 19.05. 09:5019849 %1024
1023
956
SSO 3 (9)>= 10000Nicht signifikant 
HOF
DE 578
Do 19.05. 09:2018852 %1024
1023
956
SSO 2 (6)>= 10000Nicht signifikant 
HOF
DE 578
Do 19.05. 08:5017855 %1024
1024
956
SSO 2 (5)
O - S
>= 10000Nicht signifikant 
HOF
DE 578
Do 19.05. 08:2016859 %1024
1024
956
SSO 2 (3)
OSO - SSW
>= 10000Nicht signifikant 
HOF
DE 578
Do 19.05. 07:5014867 %1024
1024
956
SSO 2 (5)>= 10000Nicht signifikant 
HOF
DE 578
Do 19.05. 07:2014867 %1024
1024
956
SSO 2 (5)>= 10000Nicht signifikant 
HOF
DE 578
Do 19.05. 06:5012876 %1024
1025
956
S 2 (4)>= 10000Nicht signifikant 
HOF
DE 578
Do 19.05. 06:2011776 %1024
1025
956
S 2 (4)>= 10000  
HOF
DE 578
Do 19.05. 05:5010782 %1024
1025
956
S 2 (4)>= 10000  
HOF
DE 578
Do 19.05. 05:2010782 %1024
1025
956
S 2 (3)>= 10000  
HOF
DE 578
Do 19.05. 04:5010782 %1024
1025
956
S 2 (4)>= 10000  
HOF
DE 578
Do 19.05. 04:2011776 %1024
1025
956
S 2 (4)>= 10000  
HOF
DE 578
Do 19.05. 03:5011776 %1024
1025
956
S 2 (4)>= 10000  
HOF
DE 578
Do 19.05. 03:2011776 %1024
1025
956
SSO 2 (3)>= 10000  
HOF
DE 578
Do 19.05. 02:5013767 %1024
1025
956
SO 2 (5)>= 10000  
HOF
DE 578
Do 19.05. 02:2012771 %1024
1025
956
SO 2 (4)>= 10000  
HOF
DE 578
Do 19.05. 01:5013872 %1024
1025
956
SSO 2 (4)>= 10000  
HOF
DE 578
Do 19.05. 01:2014867 %1025
1025
957
SO 2 (5)>= 10000  
HOF
DE 578
Do 19.05. 00:5014867 %1025
1025
957
SSO 2 (5)>= 10000  
HOF
DE 578
Do 19.05. 00:2015863 %1025
1025
957
SSO 2 (5)
OSO - S
>= 10000  
HOF
DE 578
Mi 18.05. 23:5015863 %1025
1025
957
SO 2 (4)>= 10000  
HOF
DE 578
Mi 18.05. 23:2015863 %1025
1025
957
SSO 2 (4)>= 10000  
HOF
DE 578
Mi 18.05. 22:5015863 %1025
1025
957
S 2 (4)>= 10000  
HOF
DE 578
Mi 18.05. 22:2016859 %1025
1025
957
S 2 (3)>= 10000  
HOF
DE 578
Mi 18.05. 21:5017959 %1025
1025
957
SO 2 (3)>= 10000  
HOF
DE 578
Mi 18.05. 21:2017959 %1025
1025
957
SO 2 (3)>= 10000  
HOF
DE 578
Mi 18.05. 20:5018956 %1025
1024
957
SO 2 (4)>= 10000  
HOF
DE 578
Mi 18.05. 20:20191160 %1025
1024
957
Uml 2 (3)>= 10000  
HOF
DE 578
Mi 18.05. 19:50211153 %1024
1023
956
SSO 2 (4)>= 10000Nicht signifikant 
HOF
DE 578
Mi 18.05. 19:20221150 %1024
1022
956
S 2 (5)>= 10000Nicht signifikant 
HOF
DE 578
Mi 18.05. 18:50231147 %1024
1022
956
S 2 (6)>= 10000Nicht signifikant 
HOF
DE 578
Mi 18.05. 18:20231044 %1025
1023
957
S 2 (6)
SSO - SSW
>= 10000Nicht signifikant 
HOF
DE 578
Mi 18.05. 17:50231147 %1025
1023
957
S 2 (6)>= 10000Nicht signifikant 
HOF
DE 578
Mi 18.05. 17:20231147 %1025
1023
957
S 2 (6)
SO - SW
>= 10000Nicht signifikant 
HOF
DE 578
Mi 18.05. 16:50231147 %1025
1023
957
SSO 2 (6)
SO - SW
>= 10000Nicht signifikant 
HOF
DE 578
Mi 18.05. 16:20231250 %1025
1023
957
SSO 2 (5)>= 10000Nicht signifikant 
HOF
DE 578
Mi 18.05. 15:50211153 %1025
1024
957
Uml 2 (3)>= 10000Nicht signifikant 
HOF
DE 578
Mi 18.05. 15:20211153 %1025
1024
957
Uml 1 (2)>= 10000Nicht signifikant 
HOF
DE 578
Mi 18.05. 14:50211153 %1025
1024
957
O 2 (4)
NO - SO
>= 10000Nicht signifikant 

Altimeter: Einstellung am Altimeter (Höhenmesser), die Höhe 0 muss auf diesen Luftdruckwert zeigen, damit das Gerät die Stationshöhe richtig anzeigt.

NN: Luftdruck reduziert auf "Normal Null", auf Meereshöhe, dieser von der Temperatur abhängige Wert wird bisweilen unkorrekt einfach als "Luftdruck" bezeichnet. Eigentlich nur eine fiktive Größe, die es erlaubt, Stationen auf unterschiedlichen Höhen miteinander zu vergleichen.

Station: Realer Luftdruck an der Station.